SBOSBO ALG / DAAG
Speedbird OnlineSpeedbird Online ALG / DAAG

Houari Boumediene Airport
13:57 15°C

Location Algier, Algeria
Latitude: 36.691001892089844
Longitude: 3.215409994125366
Web Wikipedia
Altitude 25 Meter / 82 Feet
Distance 1,666 KM / 1,035 Miles
from London.
Time Zone UTC +1 hours (Africa/Algiers)
Codes IATA: ALG
ICAO: DAAG
Currency £1 equals DZD 167.66
Runways
RunwayLength (m)Surface
053500Asphalt
093500Asphalt
233500Asphalt
273500Asphalt
Radio
TypeDescriptionFrequency
APPALGIERS APP121.4
CCRALGIERS CCR127.3
GNDALGIERS GND121.8
TWRALGIERS TWR118.7
Live ATC
METAR DAAG 311230Z 21005KT 180V250 9999 FEW026 15/05 Q1029
TAF TAF DAAG 311100Z 3112/0112 26010KT 9999 FEW023 BECMG 3118/3120 VRB02KT
Weather As Of 31 Jan 2023 13:57
Description Few clouds
Wind 9 km/h from South-West (210°)
Cloud Cover 20%
Precipitation Rain: none, Snow: none
Sunrise 07:50
Sunset 18:10
Lounges Salon Premiere Classe, Between Terminal 1 and 2
Rotations During the last 90 days there were
56 flights from LHR
57 flights to LHR



Support Speedbird Online

© 2017-2023 Speedbird Online